Time;durP1;ratioP1;P1;durP2;ratioP2;P2;SDS_P1;SDS_P2;PMS_P1;PMS_P2;Temp;Humidity;BMP_temperature;BMP_pressure;BME280_temperature;BME280_humidity;BME280_pressure;Samples;Min_cycle;Max_cycle;Signal;HPM_P1;HPM_P2
2021/10/24 00:03:03;;;;;;;26.70;10.45;;;;;;;3.61;100.00;100448.77;4445682;78;28472;-78
2021/10/24 00:09:05;;;;;;;23.57;10.13;;;;;;;3.53;100.00;100460.64;4439546;78;28439;-78
2021/10/24 00:15:08;;;;;;;25.72;11.10;;;;;;;3.55;100.00;100472.47;4435042;79;28494;-79
2021/10/24 00:21:09;;;;;;;27.37;11.88;;;;;;;3.58;100.00;100477.48;4449024;79;28446;-79
2021/10/24 00:27:11;;;;;;;28.05;11.85;;;;;;;3.51;100.00;100478.58;4447222;79;28493;-78
2021/10/24 00:33:12;;;;;;;26.17;11.33;;;;;;;3.52;100.00;100484.72;4337952;80;28508;-81
2021/10/24 00:39:14;;;;;;;21.75;10.03;;;;;;;3.44;100.00;100481.48;4346794;80;28499;-79
2021/10/24 00:45:17;;;;;;;32.33;14.60;;;;;;;3.72;100.00;100486.78;4366921;81;28446;-78
2021/10/24 00:51:19;;;;;;;28.15;11.43;;;;;;;3.96;100.00;100474.70;4378449;80;28538;-78
2021/10/24 00:57:20;;;;;;;24.70;9.95;;;;;;;4.18;100.00;100477.39;4353054;80;28491;-78
2021/10/24 01:03:22;;;;;;;26.12;10.32;;;;;;;4.29;100.00;100478.48;4366770;80;28607;-79
2021/10/24 01:09:24;;;;;;;31.45;10.82;;;;;;;4.40;100.00;100468.58;4441348;79;28525;-79
2021/10/24 01:15:25;;;;;;;29.12;11.12;;;;;;;4.47;100.00;100470.94;4374304;79;28629;-79
2021/10/24 01:21:27;;;;;;;22.13;10.20;;;;;;;4.58;100.00;100484.02;4384184;80;28505;-79
2021/10/24 01:27:29;;;;;;;24.07;10.75;;;;;;;4.74;100.00;100490.44;4381156;80;28454;-79
2021/10/24 01:33:31;;;;;;;25.20;10.32;;;;;;;4.90;100.00;100488.36;4382871;80;28551;-79
2021/10/24 01:39:32;;;;;;;24.20;9.75;;;;;;;4.90;100.00;100479.03;4385124;81;28500;-79
2021/10/24 01:45:34;;;;;;;27.13;9.90;;;;;;;4.87;100.00;100486.84;4384698;80;28460;-79
2021/10/24 01:51:37;;;;;;;22.30;10.10;;;;;;;4.94;100.00;100487.04;4380342;80;28485;-79
2021/10/24 01:57:45;;;;;;;26.50;10.60;;;;;;;5.00;100.00;100489.09;4373170;81;28464;-79
2021/10/24 02:03:47;;;;;;;24.50;10.43;;;;;;;4.97;100.00;100495.23;4380709;80;28497;-79
2021/10/24 02:10:09;;;;;;;21.73;10.07;;;;;;;4.83;100.00;100494.83;4386481;80;28484;-79
2021/10/24 02:16:10;;;;;;;25.43;9.95;;;;;;;4.87;100.00;100497.50;4427116;78;28516;-80
2021/10/24 02:22:14;;;;;;;27.05;10.45;;;;;;;4.91;100.00;100499.88;4455285;77;28465;-79
2021/10/24 02:28:16;;;;;;;27.50;11.45;;;;;;;4.82;100.00;100495.83;4434706;78;28480;-79
2021/10/24 02:34:17;;;;;;;22.77;9.38;;;;;;;4.69;100.00;100508.22;4437486;78;28522;-79
2021/10/24 02:40:26;;;;;;;21.42;9.50;;;;;;;4.70;100.00;100501.08;4369384;80;28464;-79
2021/10/24 02:46:29;;;;;;;25.72;10.75;;;;;;;4.55;100.00;100504.30;4418100;78;28439;-79
2021/10/24 02:52:30;;;;;;;24.70;10.63;;;;;;;4.41;100.00;100507.52;4430242;78;28495;-79
2021/10/24 02:58:32;;;;;;;23.50;10.95;;;;;;;4.22;100.00;100517.34;4436968;78;28485;-79
2021/10/24 03:04:35;;;;;;;25.43;11.38;;;;;;;4.07;100.00;100508.23;4429609;78;28483;-80
2021/10/24 03:10:36;;;;;;;22.30;10.43;;;;;;;3.99;100.00;100521.80;4449148;78;28492;-80
2021/10/24 03:16:38;;;;;;;24.37;10.28;;;;;;;3.90;100.00;100526.22;4372214;80;28483;-80
2021/10/24 03:22:40;;;;;;;25.40;9.68;;;;;;;3.69;100.00;100520.30;4371561;80;28460;-80
2021/10/24 03:28:41;;;;;;;25.12;10.23;;;;;;;3.70;100.00;100532.14;4392014;78;28505;-79
2021/10/24 03:34:43;;;;;;;25.55;10.60;;;;;;;3.56;100.00;100537.46;4418215;78;28458;-78
2021/10/24 03:40:46;;;;;;;27.15;11.43;;;;;;;3.46;100.00;100540.19;4348859;80;28548;-80
2021/10/24 03:46:47;;;;;;;23.95;10.88;;;;;;;3.31;100.00;100541.64;4378124;79;28440;-78
2021/10/24 03:52:48;;;;;;;26.65;10.20;;;;;;;3.22;100.00;100544.69;4384836;79;28554;-78
2021/10/24 03:58:52;;;;;;;21.70;9.90;;;;;;;3.14;100.00;100556.53;4366855;79;28450;-78
2021/10/24 04:04:53;;;;;;;20.25;9.88;;;;;;;3.20;100.00;100551.47;4378796;79;28484;-79
2021/10/24 04:10:55;;;;;;;22.87;10.23;;;;;;;3.35;100.00;100555.00;4379716;79;28469;-79
2021/10/24 04:16:57;;;;;;;25.30;10.45;;;;;;;3.31;100.00;100554.93;4411839;79;28503;-78
2021/10/24 04:23:00;;;;;;;23.83;10.38;;;;;;;3.39;100.00;100551.56;4377334;79;28466;-78
2021/10/24 04:29:02;;;;;;;21.25;10.03;;;;;;;3.32;100.00;100557.94;4350854;80;28515;-78
2021/10/24 04:35:06;;;;;;;20.82;9.68;;;;;;;3.25;100.00;100568.31;4400004;79;28491;-78
2021/10/24 04:41:07;;;;;;;21.23;9.35;;;;;;;3.25;100.00;100576.80;4386821;79;28496;-79
2021/10/24 04:47:09;;;;;;;21.25;9.30;;;;;;;3.28;100.00;100593.78;4393609;79;28598;-79
2021/10/24 04:53:11;;;;;;;28.10;10.53;;;;;;;3.20;100.00;100584.70;4375280;79;28482;-79
2021/10/24 04:59:13;;;;;;;24.98;10.95;;;;;;;3.12;100.00;100603.69;4368672;79;28460;-79
2021/10/24 05:05:16;;;;;;;25.17;10.63;;;;;;;3.01;100.00;100609.52;4367456;79;28465;-79
2021/10/24 05:11:18;;;;;;;18.07;9.10;;;;;;;2.86;100.00;100608.27;4388818;79;28467;-79
2021/10/24 05:17:19;;;;;;;20.08;8.98;;;;;;;2.91;100.00;100607.36;4366455;79;28489;-79
2021/10/24 05:23:21;;;;;;;21.30;8.58;;;;;;;2.88;100.00;100624.92;4371687;79;28497;-80
2021/10/24 05:29:22;;;;;;;21.27;9.55;;;;;;;2.95;100.00;100627.84;4395397;81;28484;-81
2021/10/24 05:35:24;;;;;;;22.32;10.10;;;;;;;2.88;100.00;100639.53;4372755;80;28476;-79
2021/10/24 05:41:27;;;;;;;20.27;9.25;;;;;;;2.95;100.00;100649.11;4384790;80;28476;-79
2021/10/24 05:47:29;;;;;;;20.72;9.38;;;;;;;2.98;100.00;100647.01;4388864;81;28463;-79
2021/10/24 05:53:32;;;;;;;18.27;9.30;;;;;;;2.94;100.00;100649.58;4396352;81;28535;-78
2021/10/24 05:59:34;;;;;;;18.30;8.23;;;;;;;3.13;100.00;100655.86;4395819;81;28517;-78
2021/10/24 06:05:49;;;;;;;21.50;8.60;;;;;;;3.09;100.00;100658.47;4371765;80;28492;-80
2021/10/24 06:12:00;;;;;;;21.25;8.70;;;;;;;3.08;100.00;100670.90;4364199;80;28554;-79
2021/10/24 06:18:01;;;;;;;19.75;9.95;;;;;;;3.12;100.00;100672.28;4353461;81;28577;-79
2021/10/24 06:24:03;;;;;;;22.75;10.30;;;;;;;3.11;100.00;100677.76;4376548;81;28460;-81
2021/10/24 06:30:09;;;;;;;29.77;11.03;;;;;;;3.26;100.00;100690.12;4377684;81;28465;-81
2021/10/24 06:36:29;;;;;;;28.05;10.08;;;;;;;3.40;100.00;100702.14;4363342;81;28481;-79
2021/10/24 06:42:44;;;;;;;25.82;11.05;;;;;;;3.61;100.00;100695.28;4372539;79;28468;-81
2021/10/24 06:48:57;;;;;;;25.92;9.75;;;;;;;3.75;100.00;100706.80;4350871;80;28450;-80
2021/10/24 06:55:01;;;;;;;21.90;10.40;;;;;;;4.17;100.00;100699.34;4374495;79;28464;-81
2021/10/24 07:01:20;;;;;;;23.47;10.50;;;;;;;4.21;100.00;100711.84;4359351;81;28462;-78
2021/10/24 07:07:41;;;;;;;25.65;10.95;;;;;;;4.33;100.00;100712.02;4380131;80;28523;-80
2021/10/24 07:13:43;;;;;;;25.00;10.15;;;;;;;4.62;100.00;100704.31;4377053;81;28538;-79
2021/10/24 07:19:44;;;;;;;22.62;9.70;;;;;;;4.97;100.00;100715.13;4397008;81;28540;-80
2021/10/24 07:25:48;;;;;;;21.10;9.60;;;;;;;5.20;100.00;100710.17;4414350;79;28477;-78
2021/10/24 07:31:50;;;;;;;23.67;11.10;;;;;;;5.43;100.00;100707.00;4360971;80;28494;-79
2021/10/24 07:37:54;;;;;;;24.18;10.65;;;;;;;5.38;100.00;100706.13;4343934;80;28527;-80
2021/10/24 07:43:58;;;;;;;23.83;11.35;;;;;;;5.64;100.00;100715.14;4370468;80;28452;-78
2021/10/24 07:50:09;;;;;;;23.38;10.50;;;;;;;5.82;100.00;100719.08;4348280;80;28485;-81
2021/10/24 07:56:13;;;;;;;22.35;10.53;;;;;;;5.94;100.00;100726.32;4409203;79;28466;-78
2021/10/24 08:02:19;;;;;;;21.82;9.95;;;;;;;6.10;100.00;100717.59;4354403;80;28541;-80
2021/10/24 08:08:21;;;;;;;27.10;10.20;;;;;;;6.28;100.00;100715.66;4366268;79;28562;-81
2021/10/24 08:14:23;;;;;;;21.95;9.48;;;;;;;6.44;100.00;100727.39;4426961;79;28594;-83
2021/10/24 08:20:24;;;;;;;19.87;9.33;;;;;;;6.41;100.00;100720.55;4414556;78;28538;-79
2021/10/24 08:26:28;;;;;;;16.97;7.72;;;;;;;6.46;100.00;100732.58;4365324;78;28519;-75
2021/10/24 08:32:29;;;;;;;22.42;10.15;;;;;;;6.59;100.00;100737.47;4424447;78;28564;-80
2021/10/24 08:38:32;;;;;;;22.25;9.58;;;;;;;6.67;100.00;100732.97;4408318;79;28543;-76
2021/10/24 08:44:35;;;;;;;18.75;8.63;;;;;;;6.78;100.00;100739.86;4349986;80;28534;-76
2021/10/24 08:50:36;;;;;;;19.98;8.45;;;;;;;6.98;100.00;100739.55;4413995;78;28525;-79
2021/10/24 08:56:40;;;;;;;19.32;9.10;;;;;;;6.91;100.00;100732.67;4358090;80;28474;-79
2021/10/24 09:03:12;;;;;;;23.75;8.40;;;;;;;7.09;100.00;100739.72;4425607;78;28532;-80
2021/10/24 09:09:17;;;;;;;15.35;6.55;;;;;;;7.34;100.00;100745.05;4365288;80;28484;-81
2021/10/24 09:15:19;;;;;;;19.07;6.53;;;;;;;7.63;100.00;100750.39;4366401;80;28471;-82
2021/10/24 09:21:23;;;;;;;19.37;6.83;;;;;;;7.90;100.00;100755.05;4394331;79;28507;-81
2021/10/24 09:27:24;;;;;;;13.83;4.90;;;;;;;8.05;100.00;100749.81;4391765;79;28493;-80
2021/10/24 09:33:28;;;;;;;13.30;4.40;;;;;;;8.31;100.00;100752.72;4378416;79;28441;-78
2021/10/24 09:39:34;;;;;;;17.65;7.33;;;;;;;8.47;100.00;100754.49;4349287;80;28523;-76
2021/10/24 09:45:36;;;;;;;10.10;3.40;;;;;;;8.40;100.00;100757.05;4380703;79;28458;-80
2021/10/24 09:51:37;;;;;;;13.50;3.70;;;;;;;8.65;100.00;100751.61;4376515;79;28479;-78
2021/10/24 09:57:38;;;;;;;11.55;3.30;;;;;;;9.02;100.00;100760.75;4402629;79;28469;-78
2021/10/24 10:03:44;;;;;;;12.18;3.58;;;;;;;9.25;100.00;100759.91;4415143;79;28502;-81
2021/10/24 10:09:45;;;;;;;13.65;3.70;;;;;;;9.24;100.00;100756.08;4389846;79;28477;-79
2021/10/24 10:15:49;;;;;;;11.08;3.65;;;;;;;9.10;100.00;100752.32;4370585;79;28479;-79
2021/10/24 10:21:51;;;;;;;10.70;3.40;;;;;;;8.83;100.00;100755.34;4379370;79;28623;-78
2021/10/24 10:27:52;;;;;;;10.65;3.60;;;;;;;8.93;100.00;100755.95;4404682;79;28480;-79
2021/10/24 10:34:06;;;;;;;9.95;3.10;;;;;;;8.76;100.00;100755.72;4421984;79;28501;-81
2021/10/24 10:40:30;;;;;;;8.40;2.85;;;;;;;8.79;100.00;100750.84;4365708;80;28510;-82
2021/10/24 10:46:31;;;;;;;8.70;3.33;;;;;;;9.00;100.00;100744.49;4376760;80;28536;-78
2021/10/24 10:52:40;;;;;;;10.95;3.30;;;;;;;8.83;100.00;100743.28;4331912;80;28510;-77
2021/10/24 10:58:49;;;;;;;11.63;3.52;;;;;;;9.01;100.00;100736.80;4322665;80;28487;-77
2021/10/24 11:04:53;;;;;;;8.50;2.72;;;;;;;9.25;100.00;100737.09;4327847;80;28468;-77
2021/10/24 11:10:55;;;;;;;14.10;3.25;;;;;;;9.37;100.00;100728.11;4334535;80;28569;-75
2021/10/24 11:16:57;;;;;;;10.85;2.92;;;;;;;9.34;100.00;100727.14;4404232;79;28565;-75
2021/10/24 11:23:03;;;;;;;10.88;3.00;;;;;;;9.06;99.90;100717.81;4401546;80;28469;-80
2021/10/24 11:29:05;;;;;;;9.87;2.70;;;;;;;9.15;100.00;100718.56;4381034;79;38360;-77
2021/10/24 11:35:14;;;;;;;8.33;2.55;;;;;;;9.18;100.00;100719.53;4348846;80;28495;-76
2021/10/24 11:41:21;;;;;;;8.28;2.58;;;;;;;9.20;100.00;100708.11;4399835;80;28529;-78
2021/10/24 11:47:22;;;;;;;10.45;2.60;;;;;;;9.39;99.41;100713.17;4370190;80;28539;-76
2021/10/24 11:53:30;;;;;;;7.78;2.25;;;;;;;9.41;95.52;100702.55;4367534;80;28459;-79
2021/10/24 11:59:38;;;;;;;7.62;2.30;;;;;;;9.42;95.16;100693.48;4365806;80;28515;-76
2021/10/24 12:05:42;;;;;;;8.50;2.08;;;;;;;9.61;93.94;100689.95;4355048;80;28544;-83
2021/10/24 12:11:46;;;;;;;6.50;2.10;;;;;;;9.53;94.35;100679.28;4305172;80;28445;-76
2021/10/24 12:17:47;;;;;;;8.58;2.22;;;;;;;9.59;97.38;100677.22;4324361;80;28497;-79
2021/10/24 12:23:49;;;;;;;6.28;1.75;;;;;;;9.74;97.94;100669.17;4332885;80;28515;-78
2021/10/24 12:30:08;;;;;;;5.58;1.72;;;;;;;9.72;83.91;100668.53;4333648;80;28419;-77
2021/10/24 12:36:35;;;;;;;10.55;2.02;;;;;;;9.81;81.91;100665.23;4315602;80;28524;-79
2021/10/24 12:42:36;;;;;;;;;;;;;;;9.76;81.53;100659.91;4367609;80;28527;-78
2021/10/24 12:48:42;;;;;;;5.25;1.87;;;;;;;9.68;75.96;100653.78;4328286;80;20577;-83
2021/10/24 12:54:46;;;;;;;7.58;2.37;;;;;;;9.85;84.20;100653.11;4342984;80;28493;-77
2021/10/24 13:00:47;;;;;;;8.25;1.95;;;;;;;9.85;87.90;100653.11;4331376;80;28494;-78
2021/10/24 13:06:48;;;;;;;7.10;1.80;;;;;;;9.81;77.19;100659.86;4338858;80;28497;-74
2021/10/24 13:12:51;;;;;;;7.45;1.98;;;;;;;9.91;80.13;100645.62;4329259;80;28492;-78
2021/10/24 13:18:55;;;;;;;5.90;1.57;;;;;;;9.88;77.88;100640.11;4376001;80;28616;-78
2021/10/24 13:24:56;;;;;;;7.62;1.60;;;;;;;9.86;73.26;100635.44;4353936;80;28481;-79
2021/10/24 13:30:57;;;;;;;7.40;1.98;;;;;;;9.68;71.09;100631.80;4339073;80;28484;-76
2021/10/24 13:36:59;;;;;;;6.67;1.57;;;;;;;9.68;71.98;100629.12;4381418;80;28481;-80
2021/10/24 13:43:00;;;;;;;7.05;1.70;;;;;;;9.70;69.89;100632.45;4354446;80;28526;-80
2021/10/24 13:49:03;;;;;;;5.15;1.72;;;;;;;9.73;70.36;100623.19;4408937;79;28454;-79
2021/10/24 13:55:06;;;;;;;5.70;1.70;;;;;;;9.72;71.52;100622.34;4354109;81;28455;-78
2021/10/24 14:01:08;;;;;;;4.65;1.40;;;;;;;9.69;73.21;100629.44;4398985;78;28482;-79
2021/10/24 14:07:10;;;;;;;8.58;1.95;;;;;;;9.66;72.00;100619.57;4444885;78;28492;-78
2021/10/24 14:13:11;;;;;;;6.08;1.60;;;;;;;9.63;72.95;100606.00;4413054;79;28448;-79
2021/10/24 14:19:16;;;;;;;7.15;1.70;;;;;;;9.55;72.54;100606.94;4424122;79;28449;-81
2021/10/24 14:25:17;;;;;;;3.92;1.37;;;;;;;9.45;69.41;100609.06;4423195;80;28464;-79
2021/10/24 14:31:21;;;;;;;5.45;1.40;;;;;;;9.34;71.44;100609.03;4408133;78;28482;-80
2021/10/24 14:37:23;;;;;;;4.15;1.50;;;;;;;9.31;71.75;100606.20;4397933;78;28450;-81
2021/10/24 14:43:26;;;;;;;5.58;1.55;;;;;;;9.21;70.85;100608.32;4405944;79;28467;-83
2021/10/24 14:49:27;;;;;;;6.53;1.62;;;;;;;9.15;73.82;100597.81;4360488;80;28453;-83
2021/10/24 14:55:29;;;;;;;5.33;1.50;;;;;;;9.03;73.28;100583.19;4422054;79;28483;-83
2021/10/24 15:01:31;;;;;;;6.62;2.12;;;;;;;8.92;75.90;100575.05;4373851;80;28529;-84
2021/10/24 15:07:32;;;;;;;5.20;1.60;;;;;;;8.72;83.76;100570.20;4325605;80;28448;-85
2021/10/24 15:13:34;;;;;;;7.50;1.72;;;;;;;8.60;82.39;100564.45;4371503;80;28503;-86
2021/10/24 15:25:56;;;;;;;8.20;2.52;;;;;;;8.05;100.00;100552.41;4342009;80;28484;-85
2021/10/24 15:31:57;;;;;;;4.10;2.17;;;;;;;7.70;100.00;100551.94;4319059;80;28488;-83
2021/10/24 15:37:58;;;;;;;5.87;2.40;;;;;;;7.58;100.00;100540.78;4344496;80;28475;-86
2021/10/24 15:44:04;;;;;;;5.15;1.95;;;;;;;7.37;100.00;100546.22;4375866;78;28524;-84
2021/10/24 15:50:10;;;;;;;4.65;1.50;;;;;;;7.03;100.00;100547.32;4340637;80;28516;-83
2021/10/24 15:56:10;;;;;;;5.95;2.22;;;;;;;6.87;100.00;100545.52;4359445;79;28490;-82
2021/10/24 16:02:11;;;;;;;9.20;2.25;;;;;;;6.73;100.00;100543.54;4386668;78;28523;-85
2021/10/24 16:08:14;;;;;;;5.85;2.20;;;;;;;6.45;100.00;100542.02;4380832;78;28507;-84
2021/10/24 16:14:16;;;;;;;6.72;2.30;;;;;;;6.40;100.00;100547.89;4376381;79;28503;-85
2021/10/24 16:20:19;;;;;;;8.83;1.92;;;;;;;6.16;100.00;100547.37;4380820;79;28441;-84
2021/10/24 16:26:21;;;;;;;8.15;2.00;;;;;;;6.04;100.00;100543.31;4374238;79;28468;-84
2021/10/24 16:32:22;;;;;;;10.53;4.10;;;;;;;5.84;100.00;100546.27;4367841;79;28488;-83
2021/10/24 16:38:25;;;;;;;7.15;2.95;;;;;;;5.62;100.00;100553.03;4388007;78;28497;-83
2021/10/24 16:44:28;;;;;;;6.92;2.62;;;;;;;5.42;100.00;100542.13;4410046;78;28496;-83
2021/10/24 16:50:30;;;;;;;9.28;2.10;;;;;;;5.30;100.00;100542.89;4367624;79;28454;-83
2021/10/24 16:56:31;;;;;;;6.97;2.98;;;;;;;5.28;100.00;100536.89;4346002;79;28548;-85
2021/10/24 17:02:33;;;;;;;7.42;2.95;;;;;;;5.17;100.00;100539.84;4363261;79;28479;-84
2021/10/24 17:08:34;;;;;;;9.90;3.70;;;;;;;5.23;100.00;100542.37;4377993;79;28480;-82
2021/10/24 17:14:36;;;;;;;10.48;4.08;;;;;;;5.06;100.00;100542.27;4377600;78;28484;-82
2021/10/24 17:20:38;;;;;;;10.78;4.45;;;;;;;5.13;100.00;100537.98;4344336;80;29044;-83
2021/10/24 17:26:39;;;;;;;7.37;3.33;;;;;;;4.91;100.00;100531.34;4362125;80;28441;-87
2021/10/24 17:32:41;;;;;;;10.13;4.00;;;;;;;4.97;100.00;100532.06;4270596;81;28448;-85
2021/10/24 17:38:43;;;;;;;10.75;4.65;;;;;;;5.09;100.00;100530.45;4370953;80;28477;-84
2021/10/24 17:44:44;;;;;;;10.98;3.90;;;;;;;5.01;100.00;100518.74;4378643;80;28519;-83
2021/10/24 17:50:46;;;;;;;12.13;4.67;;;;;;;4.92;100.00;100517.02;4358662;80;28467;-83
2021/10/24 17:56:47;;;;;;;14.65;5.15;;;;;;;4.82;100.00;100507.81;4285548;81;28953;-86
2021/10/24 18:02:49;;;;;;;13.05;5.12;;;;;;;4.80;100.00;100507.63;4338467;80;28488;-82
2021/10/24 18:08:50;;;;;;;12.07;4.80;;;;;;;4.87;100.00;100500.17;4261391;81;28447;-83
2021/10/24 18:14:52;;;;;;;13.88;5.80;;;;;;;4.70;100.00;100496.57;4343295;80;28516;-83
2021/10/24 18:20:55;;;;;;;11.45;5.20;;;;;;;4.54;100.00;100487.16;4331122;80;28546;-84
2021/10/24 18:26:58;;;;;;;17.20;7.67;;;;;;;4.44;100.00;100485.42;4329615;80;28566;-81
2021/10/24 18:33:00;;;;;;;12.40;4.58;;;;;;;4.59;100.00;100480.84;4363477;80;28561;-83
2021/10/24 18:39:04;;;;;;;13.38;5.08;;;;;;;4.66;100.00;100480.57;4338921;81;28451;-81
2021/10/24 18:45:05;;;;;;;10.30;5.10;;;;;;;4.55;100.00;100477.66;4335812;80;28501;-82
2021/10/24 18:51:07;;;;;;;13.48;5.65;;;;;;;4.41;100.00;100480.38;4329065;81;28460;-83
2021/10/24 18:57:08;;;;;;;15.68;5.47;;;;;;;4.27;100.00;100479.62;4340039;80;28444;-83
2021/10/24 19:03:12;;;;;;;14.73;5.78;;;;;;;4.29;100.00;100474.97;4357585;80;28481;-82
2021/10/24 19:09:15;;;;;;;14.28;6.50;;;;;;;4.38;100.00;100472.71;4328351;80;28518;-84
2021/10/24 19:15:17;;;;;;;20.40;8.33;;;;;;;4.37;100.00;100471.52;4324488;80;28535;-87
2021/10/24 19:21:19;;;;;;;18.02;6.92;;;;;;;4.41;100.00;100482.22;4315558;80;28523;-82
2021/10/24 19:27:20;;;;;;;20.00;7.70;;;;;;;4.33;100.00;100474.50;4330176;80;28545;-81
2021/10/24 19:33:22;;;;;;;23.65;9.98;;;;;;;4.37;100.00;100472.38;4307736;80;28517;-82
2021/10/24 19:39:24;;;;;;;25.25;11.22;;;;;;;4.44;100.00;100468.59;4356837;80;28551;-84
2021/10/24 19:45:25;;;;;;;26.68;12.00;;;;;;;4.28;100.00;100470.16;4403735;78;28938;-82
2021/10/24 19:51:27;;;;;;;29.67;12.82;;;;;;;4.17;100.00;100467.23;4366473;80;28476;-79
2021/10/24 19:57:28;;;;;;;26.73;12.63;;;;;;;4.17;100.00;100465.89;4376042;80;28438;-80
2021/10/24 20:03:30;;;;;;;31.52;12.13;;;;;;;4.17;100.00;100459.23;4358165;79;28452;-80
2021/10/24 20:09:32;;;;;;;28.17;12.50;;;;;;;4.12;100.00;100460.21;4376777;79;28534;-83
2021/10/24 20:15:35;;;;;;;28.67;12.28;;;;;;;4.28;100.00;100454.66;4366365;79;28496;-82
2021/10/24 20:21:36;;;;;;;34.27;13.83;;;;;;;4.29;100.00;100462.98;4354126;80;28495;-80
2021/10/24 20:27:37;;;;;;;28.35;13.13;;;;;;;4.23;100.00;100456.97;4349686;80;28440;-86
2021/10/24 20:33:40;;;;;;;34.98;14.70;;;;;;;4.06;100.00;100464.80;4360047;80;28514;-82
2021/10/24 20:39:42;;;;;;;32.28;14.15;;;;;;;3.79;100.00;100465.21;4358599;80;28527;-83
2021/10/24 20:45:44;;;;;;;29.40;13.83;;;;;;;3.82;100.00;100467.59;4359693;80;29189;-80
2021/10/24 20:51:46;;;;;;;30.55;13.48;;;;;;;3.69;100.00;100469.77;4353807;80;28460;-80
2021/10/24 20:57:47;;;;;;;25.65;12.03;;;;;;;3.58;100.00;100466.34;4359970;80;28504;-85
2021/10/24 21:03:49;;;;;;;29.70;12.75;;;;;;;3.64;100.00;100466.23;4377794;80;28498;-79
2021/10/24 21:09:50;;;;;;;27.05;12.68;;;;;;;3.53;100.00;100463.78;4365552;80;28521;-76
2021/10/24 21:15:54;;;;;;;31.20;13.15;;;;;;;3.49;100.00;100463.27;4344609;78;28487;-77
2021/10/24 21:21:55;;;;;;;29.15;12.78;;;;;;;3.26;100.00;100459.67;4436184;78;28523;-76
2021/10/24 21:27:57;;;;;;;29.60;13.50;;;;;;;3.14;100.00;100451.08;4425382;78;28533;-76
2021/10/24 21:33:58;;;;;;;25.15;12.05;;;;;;;2.87;100.00;100453.23;4419418;78;28573;-76
2021/10/24 21:39:59;;;;;;;25.02;11.88;;;;;;;2.73;100.00;100460.66;4441502;78;28480;-76
2021/10/24 21:46:02;;;;;;;26.42;11.48;;;;;;;2.74;100.00;100454.88;4384950;79;28474;-77
2021/10/24 21:52:04;;;;;;;28.38;12.93;;;;;;;2.67;100.00;100455.95;4371996;79;28457;-77
2021/10/24 21:58:05;;;;;;;26.75;12.95;;;;;;;2.49;100.00;100452.70;4384911;79;28591;-76
2021/10/24 22:04:06;;;;;;;30.43;13.98;;;;;;;2.47;100.00;100448.50;4373074;79;28557;-75
2021/10/24 22:10:09;;;;;;;25.27;12.40;;;;;;;2.39;100.00;100447.05;4393705;79;28471;-80
2021/10/24 22:16:10;;;;;;;30.40;12.65;;;;;;;2.12;100.00;100448.64;4403632;78;28457;-76
2021/10/24 22:22:12;;;;;;;26.65;12.45;;;;;;;1.94;100.00;100443.56;4385793;79;28535;-77
2021/10/24 22:28:19;;;;;;;30.40;11.90;;;;;;;1.88;100.00;100444.10;4354294;79;28454;-76
2021/10/24 22:34:16;;;;;;;28.23;12.63;;;;;;;1.91;100.00;100446.97;4384396;79;28602;-78
2021/10/24 22:40:19;;;;;;;25.65;12.65;;;;;;;1.87;100.00;100437.13;4376090;79;28441;-77
2021/10/24 22:46:21;;;;;;;24.65;12.55;;;;;;;1.68;100.00;100437.97;4352732;79;28529;-78
2021/10/24 22:52:24;;;;;;;26.70;12.23;;;;;;;1.67;100.00;100433.64;4380270;79;28583;-76
2021/10/24 22:58:25;;;;;;;29.45;14.18;;;;;;;1.56;100.00;100432.42;4379328;79;28477;-77
2021/10/24 23:04:27;;;;;;;24.90;12.00;;;;;;;1.53;100.00;100425.60;4390516;79;28520;-77
2021/10/24 23:10:28;;;;;;;29.70;13.72;;;;;;;1.51;100.00;100428.86;4397899;79;28491;-76
2021/10/24 23:16:30;;;;;;;26.57;13.18;;;;;;;1.34;100.00;100431.69;4427022;79;28541;-76
2021/10/24 23:22:31;;;;;;;25.37;12.18;;;;;;;1.34;100.00;100427.72;4396979;79;28465;-76
2021/10/24 23:28:33;;;;;;;29.65;12.50;;;;;;;1.32;100.00;100427.02;4382490;79;28445;-77
2021/10/24 23:34:35;;;;;;;26.68;12.80;;;;;;;1.20;100.00;100428.46;4337115;79;28521;-77
2021/10/24 23:40:36;;;;;;;29.80;13.90;;;;;;;1.27;100.00;100434.05;4355736;79;28518;-77
2021/10/24 23:46:37;;;;;;;33.13;14.38;;;;;;;1.20;100.00;100420.52;4372733;79;28457;-77
2021/10/24 23:52:38;;;;;;;28.85;13.10;;;;;;;1.19;100.00;100417.98;4368797;79;28483;-77
2021/10/24 23:58:40;;;;;;;25.43;13.58;;;;;;;1.04;100.00;100412.23;4382781;79;28475;-77
